createdAt,value
2022-12-25T00:00:34.595Z,9.681709
2022-12-25T00:01:34.582Z,9.681211
2022-12-25T00:02:34.663Z,9.681211
2022-12-25T00:03:34.667Z,9.681083
2022-12-25T00:04:34.609Z,9.681124
2022-12-25T00:05:34.523Z,9.681264
2022-12-25T00:06:34.519Z,9.681408
2022-12-25T00:07:34.505Z,9.681226
2022-12-25T00:08:34.492Z,9.681449
2022-12-25T00:09:34.676Z,9.681147
2022-12-25T00:10:37.515Z,9.681462
2022-12-25T00:11:35.492Z,9.681740
2022-12-25T00:12:34.496Z,9.681227
2022-12-25T00:13:34.485Z,9.681350
2022-12-25T00:14:34.470Z,9.680920
2022-12-25T00:15:34.487Z,9.681285
2022-12-25T00:16:34.477Z,9.681338
2022-12-25T00:17:34.461Z,9.681193
2022-12-25T00:18:34.488Z,9.681140
2022-12-25T00:19:41.462Z,9.681253
2022-12-25T00:20:34.443Z,9.682015
2022-12-25T00:21:34.445Z,9.681663
2022-12-25T00:22:34.432Z,9.681260
2022-12-25T00:23:34.423Z,9.681384
2022-12-25T00:24:34.449Z,9.680830
2022-12-25T00:25:34.409Z,9.681067
2022-12-25T00:26:34.393Z,9.680807
2022-12-25T00:27:34.451Z,9.680880
2022-12-25T00:28:34.399Z,9.681020
2022-12-25T00:29:34.397Z,9.681661
2022-12-25T00:30:34.376Z,9.681567
2022-12-25T00:31:34.493Z,9.681229
2022-12-25T00:32:34.368Z,9.681657
2022-12-25T00:33:34.397Z,9.681344
2022-12-25T00:34:34.357Z,9.681090
2022-12-25T00:35:34.349Z,9.681683
2022-12-25T00:36:41.202Z,9.681232
2022-12-25T00:37:35.359Z,9.682016
2022-12-25T00:38:34.362Z,9.681175
2022-12-25T00:39:34.391Z,9.680840
2022-12-25T00:40:34.333Z,9.681602
2022-12-25T00:41:34.358Z,9.681151
2022-12-25T00:42:34.349Z,9.681967
2022-12-25T00:43:34.321Z,9.681757
2022-12-25T00:44:34.324Z,9.681169
2022-12-25T00:45:34.413Z,9.681343
2022-12-25T00:46:34.340Z,9.681278
2022-12-25T00:47:34.306Z,9.681192
2022-12-25T00:48:34.296Z,9.681096
2022-12-25T00:49:34.275Z,9.680533
2022-12-25T00:50:34.286Z,9.680647
2022-12-25T00:51:34.281Z,9.681177
2022-12-25T00:52:34.270Z,9.681535
2022-12-25T00:53:34.276Z,9.681102
2022-12-25T00:54:34.236Z,9.681261
2022-12-25T00:55:34.240Z,9.681398
2022-12-25T00:56:34.244Z,9.681006
2022-12-25T00:57:34.226Z,9.681273
2022-12-25T00:58:34.216Z,9.680993
2022-12-25T00:59:34.227Z,9.680752
2022-12-25T01:00:34.273Z,9.681000
2022-12-25T01:01:34.273Z,9.681141
2022-12-25T01:02:34.235Z,9.681548
2022-12-25T01:03:34.236Z,9.681142
2022-12-25T01:04:34.179Z,9.681039
2022-12-25T01:05:34.182Z,9.680911
2022-12-25T01:06:34.162Z,9.681177
2022-12-25T01:07:34.160Z,9.681023
2022-12-25T01:08:34.154Z,9.680817
2022-12-25T01:09:34.172Z,9.680594
2022-12-25T01:10:34.164Z,9.680968
2022-12-25T01:11:34.155Z,9.681013
2022-12-25T01:12:34.134Z,9.680989
2022-12-25T01:13:34.122Z,9.680717
2022-12-25T01:14:34.150Z,9.680492
2022-12-25T01:15:34.123Z,9.680502
2022-12-25T01:16:34.195Z,9.680495
2022-12-25T01:17:34.140Z,9.680660
2022-12-25T01:18:34.120Z,9.680818
2022-12-25T01:19:34.116Z,9.680982
2022-12-25T01:20:34.081Z,9.681248
2022-12-25T01:21:34.088Z,9.681437
2022-12-25T01:22:34.055Z,9.680557
2022-12-25T01:23:34.056Z,9.680707
2022-12-25T01:24:34.083Z,9.680409
2022-12-25T01:25:34.059Z,9.679975
2022-12-25T01:26:34.042Z,9.680742
2022-12-25T01:27:34.050Z,9.681436
2022-12-25T01:28:34.047Z,9.681637
2022-12-25T01:29:34.050Z,9.681927
2022-12-25T01:30:34.017Z,9.681327
2022-12-25T01:31:34.087Z,9.681928
2022-12-25T01:32:34.016Z,9.681836
2022-12-25T01:33:33.999Z,9.681836
2022-12-25T01:34:34.029Z,9.681836
2022-12-25T01:35:34.020Z,9.680726
2022-12-25T01:36:33.998Z,9.680726
2022-12-25T01:37:34.017Z,9.680726
2022-12-25T01:38:33.968Z,9.681606
2022-12-25T01:39:34.034Z,9.681025
2022-12-25T01:40:33.974Z,9.681858
2022-12-25T01:41:33.967Z,9.681556
2022-12-25T01:42:33.983Z,9.680873
2022-12-25T01:43:33.935Z,9.681422
2022-12-25T01:44:33.935Z,9.680688
2022-12-25T01:45:34.024Z,9.680000
2022-12-25T01:46:33.919Z,9.680160
2022-12-25T01:47:33.921Z,9.680490
2022-12-25T01:48:33.952Z,9.680548
2022-12-25T01:49:33.927Z,9.678941
2022-12-25T01:50:33.920Z,9.680824
2022-12-25T01:51:33.921Z,9.681091
2022-12-25T01:52:33.880Z,9.680386
2022-12-25T01:53:33.874Z,9.680708
2022-12-25T01:54:33.882Z,9.680805
2022-12-25T01:55:33.865Z,9.680625
2022-12-25T01:56:33.900Z,9.680223
2022-12-25T01:57:33.866Z,9.680532
2022-12-25T01:58:33.859Z,9.680976
2022-12-25T01:59:33.866Z,9.681347
2022-12-25T02:00:33.839Z,9.680506
2022-12-25T02:01:33.900Z,9.681845
2022-12-25T02:02:33.933Z,9.681965
2022-12-25T02:03:33.831Z,9.680461
2022-12-25T02:04:33.838Z,9.680431
2022-12-25T02:05:33.827Z,9.680431
2022-12-25T02:06:33.812Z,9.680431
2022-12-25T02:07:33.816Z,9.680431
2022-12-25T02:08:33.790Z,9.681702
2022-12-25T02:09:33.795Z,9.681702
2022-12-25T02:10:33.795Z,9.681702
2022-12-25T02:11:33.779Z,9.681702
2022-12-25T02:12:33.767Z,9.681702
2022-12-25T02:13:33.789Z,9.681702
2022-12-25T02:14:33.757Z,9.681702
2022-12-25T02:15:33.782Z,9.681702
2022-12-25T02:16:33.798Z,9.681702
2022-12-25T02:17:34.740Z,9.681702
2022-12-25T02:18:33.755Z,9.681702
2022-12-25T02:19:33.748Z,9.681702
2022-12-25T02:20:33.753Z,9.681702
2022-12-25T02:21:33.726Z,9.681702
2022-12-25T02:22:33.723Z,9.681702
2022-12-25T02:23:33.735Z,9.681702
2022-12-25T02:24:33.717Z,9.681702
2022-12-25T02:25:33.695Z,9.681702
2022-12-25T02:26:33.713Z,9.681702
2022-12-25T02:27:33.704Z,9.681702
2022-12-25T02:28:33.680Z,9.681422
2022-12-25T02:29:33.669Z,9.680990
2022-12-25T02:30:33.687Z,9.681158
2022-12-25T02:31:33.687Z,9.680915
2022-12-25T02:32:33.681Z,9.681418
2022-12-25T02:33:33.656Z,9.681352
2022-12-25T02:34:33.669Z,9.681217
2022-12-25T02:35:33.651Z,9.681265
2022-12-25T02:36:33.638Z,9.681146
2022-12-25T02:37:33.636Z,9.681246
2022-12-25T02:38:33.651Z,9.681355
2022-12-25T02:39:33.617Z,9.681035
2022-12-25T02:40:33.610Z,9.680877
2022-12-25T02:41:33.611Z,9.681428
2022-12-25T02:42:33.602Z,9.681170
2022-12-25T02:43:33.591Z,9.681129
2022-12-25T02:44:33.593Z,9.681328
2022-12-25T02:45:33.650Z,9.681227
2022-12-25T02:46:33.609Z,9.681064
2022-12-25T02:47:33.587Z,9.681278
2022-12-25T02:48:33.578Z,9.681213
2022-12-25T02:49:33.562Z,9.681073
2022-12-25T02:50:33.572Z,9.681071
2022-12-25T02:51:33.578Z,9.681188
2022-12-25T02:52:33.546Z,9.681279
2022-12-25T02:53:33.546Z,9.680915
2022-12-25T02:54:33.563Z,9.681303
2022-12-25T02:55:33.532Z,9.681056
2022-12-25T02:56:33.530Z,9.680970
2022-12-25T02:57:33.525Z,9.681136
2022-12-25T02:58:33.500Z,9.681015
2022-12-25T02:59:33.516Z,9.681195
2022-12-25T03:00:33.531Z,9.680979
2022-12-25T03:01:33.629Z,9.680746
2022-12-25T03:02:33.573Z,9.680561
2022-12-25T03:03:33.548Z,9.680989
2022-12-25T03:04:33.470Z,9.680808
2022-12-25T03:05:33.495Z,9.680763
2022-12-25T03:06:33.465Z,9.680805
2022-12-25T03:07:33.457Z,9.681210
2022-12-25T03:08:33.469Z,9.680988
2022-12-25T03:09:33.490Z,9.681280
2022-12-25T03:10:33.444Z,9.681156
2022-12-25T03:11:33.448Z,9.681248
2022-12-25T03:12:33.445Z,9.681303
2022-12-25T03:13:33.418Z,9.681013
2022-12-25T03:14:33.414Z,9.681305
2022-12-25T03:15:33.409Z,9.681112
2022-12-25T03:16:33.471Z,9.680888
2022-12-25T03:17:33.421Z,9.681261
2022-12-25T03:18:33.452Z,9.681408
2022-12-25T03:19:33.393Z,9.681524
2022-12-25T03:20:33.388Z,9.681108
2022-12-25T03:21:33.381Z,9.681008
2022-12-25T03:22:33.380Z,9.681424
2022-12-25T03:23:33.374Z,9.681357
2022-12-25T03:24:33.390Z,9.681211
2022-12-25T03:25:33.360Z,9.681095
2022-12-25T03:26:33.352Z,9.681094
2022-12-25T03:27:33.357Z,9.681007
2022-12-25T03:28:33.348Z,9.680804
2022-12-25T03:29:33.340Z,9.680680
2022-12-25T03:30:33.385Z,9.680839
2022-12-25T03:31:33.322Z,9.680893
2022-12-25T03:32:33.340Z,9.680726
2022-12-25T03:33:47.159Z,9.680821
2022-12-25T03:34:34.336Z,9.682177
2022-12-25T03:35:33.316Z,9.680654
2022-12-25T03:36:33.296Z,9.680996
2022-12-25T03:37:33.316Z,9.681426
2022-12-25T03:38:33.284Z,9.681165
2022-12-25T03:39:33.279Z,9.681637
2022-12-25T03:40:33.271Z,9.681186
2022-12-25T03:41:33.284Z,9.681449
2022-12-25T03:42:33.260Z,9.681124
2022-12-25T03:43:33.248Z,9.681146
2022-12-25T03:44:33.255Z,9.682236
2022-12-25T03:45:33.238Z,9.682660
2022-12-25T03:46:33.303Z,9.682660
2022-12-25T03:47:33.229Z,9.682660
2022-12-25T03:48:33.242Z,9.681094
2022-12-25T03:49:33.213Z,9.680409
2022-12-25T03:50:33.211Z,9.681034
2022-12-25T03:51:33.217Z,9.681114
2022-12-25T03:52:33.220Z,9.681305
2022-12-25T03:53:33.208Z,9.681668
2022-12-25T03:54:33.185Z,9.681610
2022-12-25T03:55:33.199Z,9.681152
2022-12-25T03:56:33.178Z,9.681292
2022-12-25T03:57:33.169Z,9.681897
2022-12-25T03:58:33.185Z,9.681649
2022-12-25T03:59:33.159Z,9.681153
2022-12-25T04:00:33.149Z,9.681430
2022-12-25T04:01:33.221Z,9.681430
2022-12-25T04:02:33.234Z,9.681430
2022-12-25T04:03:33.266Z,9.681430
2022-12-25T04:04:33.137Z,9.681430
2022-12-25T04:05:33.127Z,9.680573
2022-12-25T04:06:33.118Z,9.680564
2022-12-25T04:07:33.114Z,9.680564
2022-12-25T04:08:33.144Z,9.680564
2022-12-25T04:09:33.108Z,9.681494
2022-12-25T04:10:33.094Z,9.681602
2022-12-25T04:11:33.089Z,9.681849
2022-12-25T04:12:33.107Z,9.681197
2022-12-25T04:13:33.104Z,9.681197
2022-12-25T04:14:33.074Z,9.680919
2022-12-25T04:15:33.118Z,9.680678
2022-12-25T04:16:33.089Z,9.681030
2022-12-25T04:17:33.061Z,9.680974
2022-12-25T04:18:33.054Z,9.681136
2022-12-25T04:19:33.073Z,9.681136
2022-12-25T04:20:33.042Z,9.681136
2022-12-25T04:21:33.053Z,9.681136
2022-12-25T04:22:33.058Z,9.680893
2022-12-25T04:23:33.059Z,9.681424
2022-12-25T04:24:33.037Z,9.681424
2022-12-25T04:25:33.018Z,9.680965
2022-12-25T04:26:33.047Z,9.680987
2022-12-25T04:27:33.009Z,9.680987
2022-12-25T04:28:33.009Z,9.680987
2022-12-25T04:29:33.009Z,9.680987
2022-12-25T04:30:33.004Z,9.681262
2022-12-25T04:31:33.009Z,9.680697
2022-12-25T04:32:33.008Z,9.680948
2022-12-25T04:33:32.995Z,9.680910
2022-12-25T04:34:33.013Z,9.680910
2022-12-25T04:35:32.965Z,9.680910
2022-12-25T04:36:32.993Z,9.680910
2022-12-25T04:37:32.992Z,9.680910
2022-12-25T04:38:32.961Z,9.680910
2022-12-25T04:39:32.956Z,9.680910
2022-12-25T04:40:32.935Z,9.680910
2022-12-25T04:41:32.947Z,9.680910
2022-12-25T04:42:32.938Z,9.680910
2022-12-25T04:43:32.947Z,9.680910
2022-12-25T04:44:32.911Z,9.680910
2022-12-25T04:45:32.920Z,9.680910
2022-12-25T04:46:32.918Z,9.680910
2022-12-25T04:47:32.896Z,9.680910
2022-12-25T04:48:32.914Z,9.680910
2022-12-25T04:49:32.904Z,9.680910
2022-12-25T04:50:32.878Z,9.680910
2022-12-25T04:51:32.876Z,9.680910
2022-12-25T04:52:32.877Z,9.680910
2022-12-25T04:53:32.863Z,9.680910
2022-12-25T04:54:32.847Z,9.680910
2022-12-25T04:55:32.838Z,9.680910
2022-12-25T04:56:32.829Z,9.680910
2022-12-25T04:57:32.821Z,9.680910
2022-12-25T04:58:32.852Z,9.680910
2022-12-25T04:59:32.815Z,9.680910
2022-12-25T05:00:32.802Z,9.680910
2022-12-25T05:01:32.948Z,9.680910
2022-12-25T05:02:32.944Z,9.680910
2022-12-25T05:03:32.861Z,9.680910
2022-12-25T05:04:32.806Z,9.680910
2022-12-25T05:05:32.789Z,9.680910
2022-12-25T05:06:32.775Z,9.680910
2022-12-25T05:07:32.783Z,9.680910
2022-12-25T05:08:32.764Z,9.680910
2022-12-25T05:09:32.794Z,9.680910
2022-12-25T05:10:32.752Z,9.680910
2022-12-25T05:11:32.751Z,9.680910
2022-12-25T05:12:32.760Z,9.680910
2022-12-25T05:13:32.748Z,9.680910
2022-12-25T05:14:32.768Z,9.680910
2022-12-25T05:15:32.738Z,9.681272
2022-12-25T05:16:32.784Z,9.681260
2022-12-25T05:17:32.721Z,9.681211
2022-12-25T05:18:32.721Z,9.681211
2022-12-25T05:19:32.715Z,9.681211
2022-12-25T05:20:39.575Z,9.681211
2022-12-25T05:21:33.712Z,9.681389
2022-12-25T05:22:32.706Z,9.681512
2022-12-25T05:23:32.698Z,9.681392
2022-12-25T05:24:32.688Z,9.681518
2022-12-25T05:25:32.712Z,9.681323
2022-12-25T05:26:32.675Z,9.681356
2022-12-25T05:27:32.669Z,9.681595
2022-12-25T05:28:32.666Z,9.681577
2022-12-25T05:29:32.673Z,9.681750
2022-12-25T05:30:32.652Z,9.682100
2022-12-25T05:31:32.783Z,9.682039
2022-12-25T05:32:32.643Z,9.681762
2022-12-25T05:33:32.638Z,9.681530
2022-12-25T05:34:32.633Z,9.681530
2022-12-25T05:35:32.625Z,9.681530
2022-12-25T05:36:32.625Z,9.681530
2022-12-25T05:37:32.666Z,9.681530
2022-12-25T05:38:32.615Z,9.681530
2022-12-25T05:39:32.627Z,9.681530
2022-12-25T05:40:32.598Z,9.681530
2022-12-25T05:41:34.841Z,9.681530
2022-12-25T05:42:32.602Z,9.681530
2022-12-25T05:43:32.639Z,9.681530
2022-12-25T05:44:32.593Z,9.681530
2022-12-25T05:45:32.575Z,9.681530
2022-12-25T05:46:32.607Z,9.681530
2022-12-25T05:47:32.574Z,9.681530
2022-12-25T05:48:32.566Z,9.681530
2022-12-25T05:49:32.555Z,9.681530
2022-12-25T05:50:32.564Z,9.681530
2022-12-25T05:51:32.572Z,9.681530
2022-12-25T05:52:32.565Z,9.681530
2022-12-25T05:53:32.545Z,9.681530
2022-12-25T05:54:32.527Z,9.681530
2022-12-25T05:55:32.526Z,9.681530
2022-12-25T05:56:32.534Z,9.681530
2022-12-25T05:57:32.522Z,9.681530
2022-12-25T05:58:32.523Z,9.681530
2022-12-25T05:59:32.517Z,9.681530
2022-12-25T06:00:32.500Z,9.681530
2022-12-25T06:01:32.605Z,9.681530
2022-12-25T06:02:32.686Z,9.681530
2022-12-25T06:03:32.506Z,9.681530
2022-12-25T06:04:32.498Z,9.681530
2022-12-25T06:05:32.474Z,9.681530
2022-12-25T06:06:32.471Z,9.681530
2022-12-25T06:07:32.532Z,9.681530
2022-12-25T06:08:32.454Z,9.681530
2022-12-25T06:09:32.471Z,9.681530
2022-12-25T06:10:32.439Z,9.681530
2022-12-25T06:11:32.436Z,9.681530
2022-12-25T06:12:32.443Z,9.681530
2022-12-25T06:13:32.427Z,9.681530
2022-12-25T06:14:32.415Z,9.681530
2022-12-25T06:15:32.454Z,9.681530
2022-12-25T06:16:37.855Z,9.681530
2022-12-25T06:17:32.432Z,9.681530
2022-12-25T06:18:32.414Z,9.681530
2022-12-25T06:19:32.398Z,9.681530
2022-12-25T06:20:39.408Z,9.681530
2022-12-25T06:21:32.388Z,9.681530
2022-12-25T06:22:32.377Z,9.681530
2022-12-25T06:23:32.482Z,9.681530
2022-12-25T06:24:32.416Z,9.681530
2022-12-25T06:25:32.357Z,9.681530
2022-12-25T06:26:32.353Z,9.681530
2022-12-25T06:27:32.367Z,9.681530
2022-12-25T06:28:32.339Z,9.681530
2022-12-25T06:29:32.344Z,9.681530
2022-12-25T06:30:32.343Z,9.681530
2022-12-25T06:31:32.347Z,9.681530
2022-12-25T06:32:32.311Z,9.681530
2022-12-25T06:33:32.309Z,9.681530
2022-12-25T06:34:32.299Z,9.681530
2022-12-25T06:35:32.332Z,9.681530
2022-12-25T06:36:32.317Z,9.681530
2022-12-25T06:37:32.287Z,9.681530
2022-12-25T06:38:32.276Z,9.681530
2022-12-25T06:39:32.293Z,9.681530
2022-12-25T06:40:32.272Z,9.681530
2022-12-25T06:41:32.273Z,9.681530
2022-12-25T06:42:32.249Z,9.681530
2022-12-25T06:43:32.244Z,9.681530
2022-12-25T06:44:32.262Z,9.681530
2022-12-25T06:45:32.267Z,9.681530
2022-12-25T06:46:32.270Z,9.681530
2022-12-25T06:47:32.229Z,9.681530
2022-12-25T06:48:32.231Z,9.681530
2022-12-25T06:49:32.245Z,9.681530
2022-12-25T06:50:32.224Z,9.681530
2022-12-25T06:51:32.255Z,9.681530
2022-12-25T06:52:32.201Z,9.681530
2022-12-25T06:53:38.828Z,9.681530
2022-12-25T06:54:33.196Z,9.681530
2022-12-25T06:55:32.184Z,9.681530
2022-12-25T06:56:32.197Z,9.681530
2022-12-25T06:57:32.186Z,9.681530
2022-12-25T06:58:32.172Z,9.681530
2022-12-25T06:59:32.161Z,9.681530
2022-12-25T07:00:32.158Z,9.681530
2022-12-25T07:01:32.282Z,9.681530
2022-12-25T07:02:32.225Z,9.681530
2022-12-25T07:03:32.183Z,9.681530
2022-12-25T07:04:32.253Z,9.681530
2022-12-25T07:05:32.142Z,9.681530
2022-12-25T07:06:32.130Z,9.681530
2022-12-25T07:07:32.119Z,9.681530
2022-12-25T07:08:32.119Z,9.681530
2022-12-25T07:09:32.149Z,9.681530
2022-12-25T07:10:32.123Z,9.681530
2022-12-25T07:11:32.114Z,9.681530
2022-12-25T07:12:32.115Z,9.681530
2022-12-25T07:13:32.085Z,9.681530
2022-12-25T07:14:32.099Z,9.681530
2022-12-25T07:15:32.099Z,9.681530
2022-12-25T07:16:32.185Z,9.681530
2022-12-25T07:17:32.066Z,9.681530
2022-12-25T07:18:32.108Z,9.681530
2022-12-25T07:19:32.085Z,9.681530
2022-12-25T07:20:32.044Z,9.681530
2022-12-25T07:21:32.042Z,9.681530
2022-12-25T07:22:32.031Z,9.681530
2022-12-25T07:23:32.033Z,9.681530
2022-12-25T07:24:32.084Z,9.681530
2022-12-25T07:25:37.116Z,9.681530
2022-12-25T07:26:32.024Z,9.681530
2022-12-25T07:27:32.003Z,9.681530
2022-12-25T07:28:31.998Z,9.681530
2022-12-25T07:29:31.997Z,9.681530
2022-12-25T07:30:32.027Z,9.681530
2022-12-25T07:31:32.103Z,9.681530
2022-12-25T07:32:32.016Z,9.681530
2022-12-25T07:33:32.018Z,9.681530
2022-12-25T07:34:32.003Z,9.681530
2022-12-25T07:35:31.957Z,9.681530
2022-12-25T07:36:31.954Z,9.681530
2022-12-25T07:37:31.950Z,9.681530
2022-12-25T07:38:31.937Z,9.681530
2022-12-25T07:39:31.962Z,9.681530
2022-12-25T07:40:31.929Z,9.681530
2022-12-25T07:41:31.925Z,9.681530
2022-12-25T07:42:31.919Z,9.681530
2022-12-25T07:43:31.919Z,9.681530
2022-12-25T07:44:31.934Z,9.681530
2022-12-25T07:45:31.998Z,9.681530
2022-12-25T07:46:31.907Z,9.681530
2022-12-25T07:47:31.886Z,9.681530
2022-12-25T07:48:31.882Z,9.681530
2022-12-25T07:49:31.893Z,9.681530
2022-12-25T07:50:31.883Z,9.681530
2022-12-25T07:51:31.873Z,9.681530
2022-12-25T07:52:34.285Z,9.681530
2022-12-25T07:53:31.893Z,9.681530
2022-12-25T07:54:31.849Z,9.681530
2022-12-25T07:55:31.852Z,9.681530
2022-12-25T07:56:31.844Z,9.681530
2022-12-25T07:57:31.834Z,9.681530
2022-12-25T07:58:31.854Z,9.681530
2022-12-25T07:59:31.865Z,9.681530
2022-12-25T08:00:31.811Z,9.681530
2022-12-25T08:01:32.006Z,9.681530
2022-12-25T08:02:32.184Z,9.681530
2022-12-25T08:03:32.094Z,9.681530
2022-12-25T08:04:31.817Z,9.681530
2022-12-25T08:05:31.827Z,9.681530
2022-12-25T08:06:31.791Z,9.681530
2022-12-25T08:07:31.766Z,9.681530
2022-12-25T08:08:31.784Z,9.681530
2022-12-25T08:09:31.794Z,9.681530
2022-12-25T08:10:31.747Z,9.681530
2022-12-25T08:11:31.787Z,9.681530
2022-12-25T08:12:31.744Z,9.681530
2022-12-25T08:13:31.771Z,9.681530
2022-12-25T08:14:31.732Z,9.681530
2022-12-25T08:15:31.719Z,9.681530
2022-12-25T08:16:31.727Z,9.681530
2022-12-25T08:17:31.713Z,9.681530
2022-12-25T08:18:31.721Z,9.681530
2022-12-25T08:19:31.711Z,9.681530
2022-12-25T08:20:31.696Z,9.681530
2022-12-25T08:21:31.696Z,9.681530
2022-12-25T08:22:31.704Z,9.681530
2022-12-25T08:23:31.678Z,9.681530
2022-12-25T08:24:31.700Z,9.681530
2022-12-25T08:25:31.667Z,9.681530
2022-12-25T08:26:31.666Z,9.681530
2022-12-25T08:27:31.656Z,9.681530
2022-12-25T08:28:31.678Z,9.681530
2022-12-25T08:29:31.651Z,9.681530
2022-12-25T08:30:31.745Z,9.681530
2022-12-25T08:31:31.759Z,9.681530
2022-12-25T08:32:31.668Z,9.681530
2022-12-25T08:33:31.613Z,9.681530
2022-12-25T08:34:31.614Z,9.681530
2022-12-25T08:35:31.619Z,9.681530
2022-12-25T08:36:31.618Z,9.681530
2022-12-25T08:37:31.602Z,9.681530
2022-12-25T08:38:31.640Z,9.681530
2022-12-25T08:39:31.585Z,9.681530
2022-12-25T08:40:31.583Z,9.681530
2022-12-25T08:41:31.577Z,9.681530
2022-12-25T08:42:31.588Z,9.681530
2022-12-25T08:43:31.558Z,9.681530
2022-12-25T08:44:31.576Z,9.681530
2022-12-25T08:45:35.142Z,9.681530
2022-12-25T08:46:31.667Z,9.681530
2022-12-25T08:47:31.533Z,9.681530
2022-12-25T08:48:31.540Z,9.681530
2022-12-25T08:49:31.521Z,9.681530
2022-12-25T08:50:31.552Z,9.681530
2022-12-25T08:51:31.520Z,9.681530
2022-12-25T08:52:31.524Z,9.681530
2022-12-25T08:53:31.506Z,9.681530
2022-12-25T08:54:31.494Z,9.681530
2022-12-25T08:55:31.481Z,9.681530
2022-12-25T08:56:31.534Z,9.681530
2022-12-25T08:57:31.478Z,9.681530
2022-12-25T08:58:31.507Z,9.681530
2022-12-25T08:59:31.490Z,9.681530
2022-12-25T09:00:31.470Z,9.681530
2022-12-25T09:01:31.593Z,9.681530
2022-12-25T09:02:31.606Z,9.681530
2022-12-25T09:03:31.515Z,9.681530
2022-12-25T09:04:31.476Z,9.681530
2022-12-25T09:05:31.436Z,9.681530
2022-12-25T09:06:31.415Z,9.681530
2022-12-25T09:07:31.436Z,9.681530
2022-12-25T09:08:31.397Z,9.681530
2022-12-25T09:09:31.402Z,9.681530
2022-12-25T09:10:31.431Z,9.680552
2022-12-25T09:11:31.409Z,9.680618
2022-12-25T09:12:31.397Z,9.680584
2022-12-25T09:13:31.402Z,9.680545
2022-12-25T09:14:31.432Z,9.680640
2022-12-25T09:15:31.390Z,9.680804
2022-12-25T09:16:31.414Z,9.680505
2022-12-25T09:17:31.351Z,9.680676
2022-12-25T09:18:31.372Z,9.680821
2022-12-25T09:19:31.352Z,9.681005
2022-12-25T09:20:31.364Z,9.680732
2022-12-25T09:21:31.352Z,9.680880
2022-12-25T09:22:31.322Z,9.680844
2022-12-25T09:23:31.312Z,9.680799
2022-12-25T09:24:31.320Z,9.680869
2022-12-25T09:25:31.314Z,9.680655
2022-12-25T09:26:31.324Z,9.680526
2022-12-25T09:27:31.304Z,9.680350
2022-12-25T09:28:31.339Z,9.680514
2022-12-25T09:29:31.290Z,9.680080
2022-12-25T09:30:31.353Z,9.679777
2022-12-25T09:31:31.391Z,9.680429
2022-12-25T09:32:31.408Z,9.680800
2022-12-25T09:33:31.318Z,9.680380
2022-12-25T09:34:31.273Z,9.680265
2022-12-25T09:35:31.261Z,9.680323
2022-12-25T09:36:31.258Z,9.680143
2022-12-25T09:37:31.285Z,9.680123
2022-12-25T09:38:31.271Z,9.680959
2022-12-25T09:39:31.255Z,9.680982
2022-12-25T09:40:31.235Z,9.680998
2022-12-25T09:41:31.235Z,9.681176
2022-12-25T09:42:31.226Z,9.681688
2022-12-25T09:43:31.208Z,9.681840
2022-12-25T09:44:31.224Z,9.681457
2022-12-25T09:45:31.195Z,9.681192
2022-12-25T09:46:36.905Z,9.681035
2022-12-25T09:47:32.195Z,9.680781
2022-12-25T09:48:31.175Z,9.680594
2022-12-25T09:49:31.201Z,9.680754
2022-12-25T09:50:31.175Z,9.680964
2022-12-25T09:51:31.179Z,9.681667
2022-12-25T09:52:31.152Z,9.681430
2022-12-25T09:53:31.194Z,9.681198
2022-12-25T09:54:31.143Z,9.681297
2022-12-25T09:55:31.148Z,9.681058
2022-12-25T09:56:31.167Z,9.680905
2022-12-25T09:57:31.138Z,9.680641
2022-12-25T09:58:31.128Z,9.680537
2022-12-25T09:59:31.145Z,9.680874
2022-12-25T10:00:31.123Z,9.681422
2022-12-25T10:01:31.182Z,9.681422
2022-12-25T10:02:31.319Z,9.681422
2022-12-25T10:03:31.185Z,9.681422
2022-12-25T10:04:33.692Z,9.681422
2022-12-25T10:05:32.100Z,9.681422
2022-12-25T10:06:31.089Z,9.681422
2022-12-25T10:07:31.084Z,9.681422
2022-12-25T10:08:31.107Z,9.681422
2022-12-25T10:09:31.079Z,9.681422
2022-12-25T10:10:31.098Z,9.681422
2022-12-25T10:11:31.074Z,9.681422
2022-12-25T10:12:31.038Z,9.681422
2022-12-25T10:13:31.069Z,9.681422
2022-12-25T10:14:31.042Z,9.681422
2022-12-25T10:15:31.104Z,9.681422
2022-12-25T10:16:31.069Z,9.681422
2022-12-25T10:17:31.021Z,9.681422
2022-12-25T10:18:31.026Z,9.681422
2022-12-25T10:19:31.026Z,9.681422
2022-12-25T10:20:31.050Z,9.681422
2022-12-25T10:21:31.001Z,9.681422
2022-12-25T10:22:31.009Z,9.681422
2022-12-25T10:23:30.997Z,9.681422
2022-12-25T10:24:30.964Z,9.681422
2022-12-25T10:25:30.980Z,9.681422
2022-12-25T10:26:31.003Z,9.681422
2022-12-25T10:27:31.012Z,9.681422
2022-12-25T10:28:30.977Z,9.681422
2022-12-25T10:29:30.955Z,9.681422
2022-12-25T10:30:30.941Z,9.681422
2022-12-25T10:31:30.998Z,9.681422
2022-12-25T10:32:30.971Z,9.681422
2022-12-25T10:33:30.936Z,9.681422
2022-12-25T10:34:30.946Z,9.681422
2022-12-25T10:35:30.923Z,9.681422
2022-12-25T10:36:30.927Z,9.681422
2022-12-25T10:37:30.915Z,9.681422
2022-12-25T10:38:30.929Z,9.681422
2022-12-25T10:39:30.899Z,9.681422
2022-12-25T10:40:30.899Z,9.681422
2022-12-25T10:41:30.888Z,9.681422
2022-12-25T10:42:30.889Z,9.681422
2022-12-25T10:43:30.897Z,9.681422
2022-12-25T10:44:30.955Z,9.681422
2022-12-25T10:45:30.932Z,9.681422
2022-12-25T10:46:30.948Z,9.681422
2022-12-25T10:47:30.869Z,9.681422
2022-12-25T10:48:30.861Z,9.681422
2022-12-25T10:49:30.867Z,9.681422
2022-12-25T10:50:30.858Z,9.681422
2022-12-25T10:51:30.818Z,9.681422
2022-12-25T10:52:30.836Z,9.681422
2022-12-25T10:53:30.823Z,9.681422
2022-12-25T10:54:30.831Z,9.681422
2022-12-25T10:55:30.795Z,9.681422
2022-12-25T10:56:30.831Z,9.680856
2022-12-25T10:57:30.811Z,9.680826
2022-12-25T10:58:30.787Z,9.680826
2022-12-25T10:59:30.813Z,9.681167
2022-12-25T11:00:30.829Z,9.681045
2022-12-25T11:01:30.859Z,9.681136
2022-12-25T11:02:30.974Z,9.681136
2022-12-25T11:03:30.957Z,9.681136
2022-12-25T11:04:30.797Z,9.680922
2022-12-25T11:05:30.773Z,9.681193
2022-12-25T11:06:30.760Z,9.681319
2022-12-25T11:07:30.745Z,9.681527
2022-12-25T11:08:30.741Z,9.681528
2022-12-25T11:09:30.742Z,9.681325
2022-12-25T11:10:30.732Z,9.681645
2022-12-25T11:11:30.751Z,9.681999
2022-12-25T11:12:30.747Z,9.681931
2022-12-25T11:13:30.754Z,9.681901
2022-12-25T11:14:30.759Z,9.682062
2022-12-25T11:15:30.704Z,9.681829
2022-12-25T11:16:30.820Z,9.681561
2022-12-25T11:17:30.705Z,9.681723
2022-12-25T11:18:30.691Z,9.681749
2022-12-25T11:19:30.694Z,9.681830
2022-12-25T11:20:30.666Z,9.681795
2022-12-25T11:21:30.678Z,9.681775
2022-12-25T11:22:30.696Z,9.682543
2022-12-25T11:23:30.661Z,9.682119
2022-12-25T11:24:30.644Z,9.681736
2022-12-25T11:25:30.648Z,9.681747
2022-12-25T11:26:30.650Z,9.681619
2022-12-25T11:27:30.660Z,9.681619
2022-12-25T11:28:30.632Z,9.681763
2022-12-25T11:29:30.608Z,9.681508
2022-12-25T11:30:30.609Z,9.681337
2022-12-25T11:31:30.649Z,9.681281
2022-12-25T11:32:30.650Z,9.681125
2022-12-25T11:33:30.613Z,9.681240
2022-12-25T11:34:30.612Z,9.681269
2022-12-25T11:35:30.594Z,9.681841
2022-12-25T11:36:30.584Z,9.681281
2022-12-25T11:37:30.587Z,9.681127
2022-12-25T11:38:30.584Z,9.681533
2022-12-25T11:39:30.596Z,9.681280
2022-12-25T11:40:30.604Z,9.681103
2022-12-25T11:41:30.554Z,9.680893
2022-12-25T11:42:30.568Z,9.681009
2022-12-25T11:43:30.537Z,9.681077
2022-12-25T11:44:30.539Z,9.680836